Дата Пункты Температура Давл., мм. Влажн., % Ветер Погодные явления
Воздуха Воды Направл. Скорость
25.04.18 12:00 Одесса 20.0 10.0 759 57 Ю-В 2 12 ЧАСОВ
25.04.18 09:00 Одесса 20.0 10.0 758 58 С 1 09 ЧАСОВ
25.04.18 06:00 Одесса 14.0 10.0 757 84 С-З 1 06 ЧАСОВ
25.04.18 03:00 Одесса 17.0 10.0 757 74 С-З 2 03 ЧАСА
24.04.18 09:00 Одесса 15.0 10.0 757 84 З 2 21 ЧАС
24.04.18 06:00 Одесса 16.0 6.0 756 78 Ю-З 2 18 ЧАСОВ
24.04.18 03:00 Одесса 16.0 6.0 757 74 Ю 6 15 ЧАСОВ
24.04.18 12:00 Одесса 17.0 7.0 758 65 Ю-З 2 12 ЧАСОВ
24.04.18 09:00 Одесса 17.0 7.0 758 55 Ю-З 3 09 ЧАСОВ
24.04.18 06:00 Одесса 15.0 9.0 757 57 З 3 06 ЧАСОВ
24.04.18 03:00 Одесса 14.0 9.0 757 50 З 3 03 ЧАСА
23.04.18 09:00 Одесса 16.0 9.0 757 34 З 4 21 ЧАС
23.04.18 06:00 Одесса 19.0 9.0 757 30 Ю-З 2 18 ЧАСОВ
23.04.18 03:00 Одесса 19.0 9.0 757 34 Ю 5 15 ЧАСОВ
23.04.18 12:00 Одесса 18.0 9.0 758 43 С-В 2 12 ЧАСОВ
23.04.18 09:00 Одесса 18.0 9.0 757 38 С 0 09 ЧАСОВ
23.04.18 06:00 Одесса 9.0 9.0 756 59 З 2 06 ЧАСОВ
23.04.18 03:00 Одесса 12.0 9.0 756 47 С-З 2 03 ЧАСА
22.04.18 09:00 Одесса 18.0 10.0 756 30 С-З 1 21 ЧАС
22.04.18 06:00 Одесса 22.0 9.0 755 20 С-З 3 18 ЧАСОВ
Количество строк
1 2 3 4 5 6 7 8 9 10
Page 1 of 354